Parris Island, SC

8:09 AM EDT on June 02, 2015 (GMT -0400)
KSCBEAUF5 | | Change Station
CLOSE
Current Station
Personal Weather Station
Location: Beaufort, SC
Elevation: 13 ft
Nearby Weather Stations

Elev 13 ft 32.42 °N, 80.69 °W | Updated 3 minutes ago

Mostly Cloudy
Mostly Cloudy
75.1 °F
Feels Like 74 °F
N
1.0
Wind Variable Wind from WSW
Gusts 11.0 mph

Today
High -- | Low -- °F
--% Chance of Precip.
Yesterday
High -- | Low -- °F
Precip. -- in
6:16 AM 8:25 PM
Full, 100% visible
Pressure 30.03 in
Visibility 10.0 miles
Clouds Few 2000 ft
Scattered Clouds 10000 ft
Scattered Clouds 18000 ft
Mostly Cloudy 25000 ft
Heat Index 74 °F
Dew Point 73 °F
Humidity 94%
Rainfall 0.00 in
Snow Depth Not available.
UV 0.7 out of 12
Pollen 3.10 out of 12
Air Quality Not available.
Flu Activity Local Activity
METAR KNBC 021156Z 00000KT 10SM FEW020 SCT100 SCT180 BKN250 24/21 A3002 RMK AO2 SLP167 T02440211 10244 20200 53010

More Conditions Fewer Conditions

Pressure 30.03 in
Visibility 10.0 miles
Clouds Few 2000 ft
Scattered Clouds 10000 ft
Scattered Clouds 18000 ft
Mostly Cloudy 25000 ft
Heat Index 74 °F
Dew Point 73 °F
Humidity 94%
Rainfall 0.00 in
Snow Depth Not available.
UV 0.7 out of 12
Pollen 3.10 out of 12
Air Quality Not available.
Flu Activity Local Activity
METAR KNBC 021156Z 00000KT 10SM FEW020 SCT100 SCT180 BKN250 24/21 A3002 RMK AO2 SLP167 T02440211 10244 20200 53010

More Conditions Fewer Conditions

10-Day Weather Forecast

Almanac

Astronomy

Jun. 02, 2015 Rise Set
Actual Time
Civil Twilight
Nautical Twilight
Astronomical Twilight
Moon
Length of Visible Light
Length of Day
Tomorrow will be .
, % of the Moon is Illuminated

Today's Extremes

State Highs State Lows

Community

WunderPhotos

Upload Photos

1,825,879 photos uploaded!

WunderBlogs® & News

Nearby

Air Quality

  Air Quality AQ Index Pollutant
Not available.

Snow Depth

Station Depth Elevation

Earthquake Activity

City Distance Mag. Time & Date
Minimum magnitude displayed is 2.5.

Coastal Water Temperatures

Place Temperature

Stations

Nearby Weather Stations

Station Location Temp. Windchill Dew Point Humidity Wind Precip. Elev Updated Type